Accueil
METAR-TAF:

METAR-TAF

Aéroports :

Dax, France

Seyresse

latitude: 43-41N, longitude: 001-04W, altitude: 32 m

Observation

Le bulletin a été fait il y a 41 minutes, à 23:30 UTC
Vent 10 kt de ouest, variant entre sud-ouest et nord-ouest
Température 19°C
Humidité 88%
Pression 1014 hPa
Visibilité: 9000 m

METAR: LFBY 282330Z AUTO 27010KT 220V320 9000 // ////// 19/17 Q1014

Heure: 02:11 (00:11 UTC)


TAF: absent

Observations et prévisions météorologiques de plus de 4000 aéroports (messages METAR et TAF).

Les stations disponibles sont représentées par des disques jaunes et rouges sur la carte.

Passer la souris dessus pour voir le nom de la station.

Cliquer dessus pour voir les observations et prévisions météorologiques.

Pour changer de carte: cliquez sur les boutons verts avec une croix noire pour zoomer, sur le bouton vert avec un tiret pour effectuer un zoom arrière, ou sur les flèches vertes pour les cartes adjacentes.


METAR-TAF: